| time (UTC) | temp C | wind direction | speed KPH | gust KPH | rain 1hr cm | rain 24hr cm | rain mn cm | humidity % | barometer mb |
| 20260505091507 | 10 | 197 | 9.7 | 14.5 | 0.00 | 0.00 | 0.00 | 61 | 1009.7 |
| 20260505090507 | 10 | 205 | 9.7 | 16.1 | 0.00 | 0.00 | 0.00 | 47 | 1009.7 |
| 20260505090007 | 10 | 197 | 11.3 | 16.1 | 0.00 | 0.00 | 0.00 | 39 | 1009.8 |
| 20260505085507 | 10 | 211 | 9.7 | 14.5 | 0.00 | 0.00 | 0.00 | 24 | 1009.8 |
| 20260505085008 | 10 | 210 | 9.7 | 14.5 | 0.00 | 0.00 | 0.00 | 21 | 1009.8 |
| 20260505084507 | 10 | 200 | 9.7 | 16.1 | 0.00 | 0.00 | 0.00 | 33 | 1009.8 |
| 20260505084007 | 11 | 200 | 8.0 | 12.9 | 0.00 | 0.00 | 0.00 | 27 | 1009.7 |
| 20260505083507 | 10 | 205 | 9.7 | 16.1 | 0.00 | 0.00 | 0.00 | 22 | 1009.6 |
| 20260505082508 | 10 | 189 | 9.7 | 14.5 | 0.00 | 0.00 | 0.00 | 23 | 1009.6 |
| 20260505082008 | 10 | 196 | 9.7 | 12.9 | 0.00 | 0.00 | 0.00 | 27 | 1009.7 |
| 20260505081508 | 10 | 195 | 9.7 | 16.1 | 0.00 | 0.00 | 0.00 | 23 | 1009.7 |
| 20260505081007 | 10 | 201 | 6.4 | 11.3 | 0.00 | 0.00 | 0.00 | 14 | 1009.7 |
| 20260505080508 | 10 | 197 | 9.7 | 12.9 | 0.00 | 0.00 | 0.00 | 8 | 1009.8 |
| 20260505080007 | 10 | 198 | 8.0 | 12.9 | 0.00 | 0.00 | 0.00 | 5 | 1009.8 |
| 20260505075508 | 10 | 185 | 8.0 | 12.9 | 0.00 | 0.00 | 0.00 | 2 | 1009.8 |
| 20260505075006 | 10 | 197 | 8.0 | 12.9 | 0.00 | 0.00 | 0.00 | 2 | 1009.9 |
| 20260505074008 | 10 | 198 | 9.7 | 14.5 | 0.00 | 0.00 | 0.00 | 2 | 1009.8 |
| 20260505073508 | 11 | 195 | 8.0 | 12.9 | 0.00 | 0.00 | 0.00 | 2 | 1009.8 |
| 20260505072009 | 11 | 196 | 9.7 | 14.5 | 0.00 | 0.00 | 0.00 | 2 | 1009.9 |
| 20260505071507 | 11 | 204 | 4.8 | 12.9 | 0.00 | 0.00 | 0.00 | 2 | 1009.9 |
| 20260505071007 | 10 | 196 | 9.7 | 14.5 | 0.00 | 0.00 | 0.00 | 2 | 1009.9 |
| 20260505070506 | 11 | 197 | 8.0 | 12.9 | 0.00 | 0.00 | 0.00 | 2 | 1009.8 |
| 20260505070006 | 11 | 197 | 8.0 | 12.9 | 0.00 | 0.00 | 0.00 | 2 | 1009.9 |
| 20260505065506 | 11 | 203 | 6.4 | 12.9 | 0.00 | 0.00 | 0.00 | 2 | 1009.9 |
| 20260505065006 | 11 | 210 | 6.4 | 11.3 | 0.00 | 0.00 | 0.00 | 2 | 1009.9 |
| 20260505064508 | 11 | 189 | 9.7 | 12.9 | 0.00 | 0.00 | 0.00 | 2 | 1010.0 |
| 20260505064006 | 11 | 203 | 8.0 | 12.9 | 0.00 | 0.00 | 0.00 | 2 | 1009.9 |
| 20260505063508 | 11 | 196 | 6.4 | 12.9 | 0.00 | 0.00 | 0.00 | 2 | 1009.9 |
| 20260505063007 | 11 | 198 | 8.0 | 14.5 | 0.00 | 0.00 | 0.00 | 2 | 1009.9 |
| 20260505062006 | 11 | 197 | 9.7 | 16.1 | 0.00 | 0.00 | 0.00 | 2 | 1009.9 |
| 20260505061506 | 11 | 205 | 8.0 | 14.5 | 0.00 | 0.00 | 0.00 | 2 | 1009.9 |
| 20260505060506 | 11 | 203 | 9.7 | 19.3 | 0.00 | 0.00 | 0.00 | 2 | 1010.0 |
| 20260505060006 | 11 | 202 | 9.7 | 14.5 | 0.00 | 0.00 | 0.00 | 2 | 1010.0 |
| 20260505055506 | 11 | 203 | 9.7 | 16.1 | 0.00 | 0.00 | 0.00 | 2 | 1010.0 |
| 20260505054006 | 11 | 196 | 9.7 | 16.1 | 0.00 | 0.00 | 0.00 | 2 | 1010.0 |
| 20260505053506 | 11 | 201 | 9.7 | 16.1 | 0.00 | 0.00 | 0.00 | 2 | 1010.0 |
| 20260505053006 | 11 | 204 | 11.3 | 16.1 | 0.00 | 0.00 | 0.00 | 2 | 1009.9 |
| 20260505052506 | 11 | 211 | 11.3 | 20.9 | 0.00 | 0.00 | 0.00 | 2 | 1009.9 |
| 20260505052006 | 11 | 214 | 11.3 | 19.3 | 0.00 | 0.00 | 0.00 | 2 | 1009.9 |
| 20260505051506 | 11 | 200 | 11.3 | 16.1 | 0.00 | 0.00 | 0.00 | 2 | 1010.0 |
| 20260505051006 | 11 | 198 | 9.7 | 19.3 | 0.00 | 0.00 | 0.00 | 2 | 1010.0 |
| 20260505050506 | 11 | 194 | 9.7 | 20.9 | 0.00 | 0.00 | 0.00 | 2 | 1010.0 |
| 20260505041506 | 11 | 193 | 11.3 | 19.3 | 0.00 | 0.00 | 0.00 | 2 | 1010.1 |
| 20260505041006 | 11 | 202 | 11.3 | 16.1 | 0.00 | 0.00 | 0.00 | 2 | 1010.1 |
| 20260505040507 | 11 | 206 | 11.3 | 20.9 | 0.00 | 0.00 | 0.00 | 2 | 1010.1 |
| 20260505040006 | 12 | 206 | 11.3 | 19.3 | 0.00 | 0.00 | 0.00 | 2 | 1010.1 |
| 20260505035506 | 11 | 197 | 12.9 | 20.9 | 0.00 | 0.00 | 0.00 | 2 | 1010.0 |
| 20260505035006 | 11 | 200 | 12.9 | 20.9 | 0.00 | 0.00 | 0.00 | 2 | 1010.1 |
| 20260505034506 | 12 | 205 | 11.3 | 20.9 | 0.00 | 0.00 | 0.00 | 2 | 1010.1 |
| 20260505034007 | 12 | 193 | 11.3 | 19.3 | 0.00 | 0.00 | 0.00 | 2 | 1010.1 |
| 20260505032507 | 12 | 199 | 11.3 | 20.9 | 0.00 | 0.00 | 0.00 | 2 | 1010.0 |
| 20260505032006 | 12 | 199 | 12.9 | 22.5 | 0.00 | 0.00 | 0.00 | 2 | 1010.0 |
| 20260505031505 | 12 | 196 | 11.3 | 20.9 | 0.00 | 0.00 | 0.00 | 2 | 1010.1 |
| 20260505030506 | 12 | 209 | 11.3 | 20.9 | 0.00 | 0.00 | 0.00 | 2 | 1010.3 |
| 20260505025506 | 12 | 207 | 14.5 | 20.9 | 0.00 | 0.00 | 0.00 | 2 | 1010.2 |
| 20260505025006 | 12 | 204 | 12.9 | 22.5 | 0.00 | 0.00 | 0.00 | 2 | 1010.2 |
| 20260505024506 | 12 | 193 | 11.3 | 20.9 | 0.00 | 0.00 | 0.00 | 2 | 1010.2 |
| 20260505024006 | 12 | 200 | 12.9 | 22.5 | 0.00 | 0.00 | 0.00 | 2 | 1010.1 |
| 20260505023506 | 12 | 193 | 12.9 | 24.1 | 0.00 | 0.00 | 0.00 | 2 | 1010.2 |
| 20260505022506 | 12 | 198 | 9.7 | 22.5 | 0.00 | 0.00 | 0.00 | 2 | 1010.1 |
| 20260505022005 | 12 | 198 | 11.3 | 24.1 | 0.00 | 0.00 | 0.00 | 2 | 1010.2 |
| 20260505020005 | 13 | 199 | 12.9 | 20.9 | 0.00 | 0.00 | 0.00 | 2 | 1010.1 |
| 20260505015506 | 13 | 213 | 11.3 | 24.1 | 0.00 | 0.00 | 0.00 | 2 | 1010.1 |
| 20260505015005 | 13 | 205 | 12.9 | 22.5 | 0.00 | 0.00 | 0.00 | 2 | 1010.1 |
| 20260505014506 | 13 | 202 | 14.5 | 22.5 | 0.00 | 0.00 | 0.00 | 2 | 1010.1 |
| 20260505014006 | 13 | 210 | 11.3 | 16.1 | 0.00 | 0.00 | 0.00 | 2 | 1010.0 |
| 20260505013506 | 13 | 206 | 16.1 | 24.1 | 0.00 | 0.00 | 0.00 | 2 | 1010.0 |
| 20260505013006 | 13 | 216 | 19.3 | 27.4 | 0.00 | 0.00 | 0.00 | 2 | 1010.0 |
| 20260505012506 | 13 | 196 | 11.3 | 20.9 | 0.00 | 0.00 | 0.00 | 2 | 1009.9 |
| 20260505012006 | 13 | 197 | 11.3 | 24.1 | 0.00 | 0.00 | 0.00 | 2 | 1009.9 |
| 20260505011510 | 13 | 193 | 11.3 | 24.1 | 0.00 | 0.00 | 0.00 | 2 | 1009.7 |
| 20260505010006 | 13 | 201 | 9.7 | 27.4 | 0.00 | 0.00 | 0.00 | 2 | 1009.5 |
| 20260505005506 | 13 | 207 | 11.3 | 29.0 | 0.00 | 0.00 | 0.00 | 2 | 1009.5 |
| 20260505005005 | 13 | 212 | 11.3 | 22.5 | 0.00 | 0.00 | 0.00 | 2 | 1009.3 |
| 20260505004506 | 13 | 206 | 14.5 | 24.1 | 0.00 | 0.00 | 0.00 | 2 | 1009.2 |
| 20260505004005 | 13 | 211 | 12.9 | 24.1 | 0.00 | 0.00 | 0.00 | 2 | 1009.1 |
| 20260505003505 | 14 | 203 | 11.3 | 27.4 | 0.00 | 0.00 | 0.00 | 2 | 1008.9 |
| 20260505003006 | 14 | 208 | 16.1 | 32.2 | 0.00 | 0.00 | 0.00 | 2 | 1008.8 |
| 20260505002006 | 14 | 194 | 17.7 | 33.8 | 0.00 | 0.00 | 0.00 | 2 | 1008.6 |
| 20260505001005 | 14 | 207 | 14.5 | 22.5 | 0.00 | 0.00 | 0.00 | 2 | 1008.4 |
| 20260505000505 | 15 | 201 | 16.1 | 29.0 | 0.00 | 0.00 | 0.00 | 2 | 1008.3 |
| 20260505000006 | 15 | 202 | 14.5 | 20.9 | 0.00 | 0.00 | 0.00 | 2 | 1008.3 |
| 20260504235504 | 15 | 200 | 17.7 | 29.0 | 0.00 | 0.00 | 0.00 | 2 | 1008.2 |
| 20260504235005 | 15 | 197 | 16.1 | 27.4 | 0.00 | 0.00 | 0.00 | 2 | 1008.1 |
| 20260504234504 | 15 | 204 | 14.5 | 29.0 | 0.00 | 0.00 | 0.00 | 2 | 1008.2 |
| 20260504234004 | 15 | 202 | 16.1 | 32.2 | 0.00 | 0.00 | 0.00 | 2 | 1008.1 |
| 20260504233505 | 16 | 197 | 20.9 | 27.4 | 0.00 | 0.00 | 0.00 | 2 | 1008.0 |
| 20260504233005 | 16 | 214 | 11.3 | 27.4 | 0.00 | 0.00 | 0.00 | 2 | 1008.0 |
| 20260504232505 | 16 | 201 | 11.3 | 24.1 | 0.00 | 0.00 | 0.00 | 2 | 1007.8 |
| 20260504231006 | 16 | 202 | 11.3 | 25.7 | 0.00 | 0.00 | 0.00 | 2 | 1007.5 |
| 20260504230504 | 16 | 196 | 19.3 | 29.0 | 0.00 | 0.00 | 0.00 | 2 | 1007.4 |
| 20260504225505 | 17 | 198 | 16.1 | 29.0 | 0.00 | 0.00 | 0.00 | 2 | 1007.2 |
| 20260504225005 | 17 | 196 | 14.5 | 32.2 | 0.00 | 0.00 | 0.00 | 2 | 1007.2 |
| 20260504224504 | 17 | 198 | 19.3 | 32.2 | 0.00 | 0.00 | 0.00 | 2 | 1007.1 |
| 20260504224005 | 17 | 207 | 20.9 | 37.0 | 0.00 | 0.00 | 0.00 | 2 | 1007.0 |
| 20260504223004 | 17 | 196 | 19.3 | 33.8 | 0.00 | 0.00 | 0.00 | 2 | 1006.9 |
| 20260504222504 | 17 | 204 | 24.1 | 46.7 | 0.00 | 0.00 | 0.00 | 2 | 1006.9 |
| 20260504222004 | 18 | 213 | 16.1 | 35.4 | 0.00 | 0.00 | 0.00 | 2 | 1006.9 |
| 20260504221505 | 17 | 209 | 22.5 | 37.0 | 0.00 | 0.00 | 0.00 | 2 | 1006.9 |
| 20260504221004 | 18 | 219 | 19.3 | 37.0 | 0.00 | 0.00 | 0.00 | 2 | 1006.7 |
| 20260504220505 | 18 | 193 | 22.5 | 38.6 | 0.00 | 0.00 | 0.00 | 2 | 1006.7 |
| 20260504220004 | 18 | 204 | 19.3 | 45.1 | 0.00 | 0.00 | 0.00 | 2 | 1006.8 |
| 20260504215504 | 17 | 209 | 22.5 | 41.8 | 0.00 | 0.00 | 0.00 | 2 | 1006.9 |
| 20260504214504 | 18 | 198 | 20.9 | 40.2 | 0.00 | 0.00 | 0.00 | 2 | 1006.8 |
| 20260504214004 | 18 | 197 | 27.4 | 41.8 | 0.00 | 0.00 | 0.00 | 2 | 1006.8 |
| 20260504213504 | 18 | 199 | 20.9 | 41.8 | 0.00 | 0.00 | 0.00 | 2 | 1006.7 |
| 20260504213004 | 18 | 199 | 22.5 | 48.3 | 0.00 | 0.00 | 0.00 | 2 | 1006.6 |
| 20260504212504 | 18 | 194 | 22.5 | 37.0 | 0.00 | 0.00 | 0.00 | 2 | 1006.7 |
| 20260504212004 | 18 | 217 | 14.5 | 38.6 | 0.00 | 0.00 | 0.00 | 2 | 1006.6 |
| 20260504211504 | 18 | 195 | 16.1 | 40.2 | 0.00 | 0.00 | 0.00 | 2 | 1006.6 |
| 20260504211004 | 18 | 193 | 24.1 | 45.1 | 0.00 | 0.00 | 0.00 | 2 | 1006.5 |
| 20260504210504 | 18 | 195 | 19.3 | 38.6 | 0.00 | 0.00 | 0.00 | 2 | 1006.4 |
| 20260504210005 | 18 | 189 | 25.7 | 37.0 | 0.00 | 0.00 | 0.00 | 2 | 1006.5 |
| 20260504205004 | 18 | 201 | 20.9 | 41.8 | 0.00 | 0.00 | 0.00 | 2 | 1006.5 |
| 20260504204504 | 19 | 201 | 16.1 | 29.0 | 0.00 | 0.00 | 0.00 | 2 | 1006.4 |
| 20260504204004 | 19 | 201 | 19.3 | 32.2 | 0.00 | 0.00 | 0.00 | 100 | 1006.5 |
| 20260504203504 | 19 | 211 | 20.9 | 33.8 | 0.00 | 0.00 | 0.00 | 100 | 1006.5 |
| 20260504202504 | 19 | 213 | 17.7 | 40.2 | 0.00 | 0.00 | 0.00 | 2 | 1006.4 |
| 20260504202005 | 19 | 198 | 20.9 | 40.2 | 0.00 | 0.00 | 0.00 | 2 | 1006.5 |
| 20260504201504 | 19 | 208 | 20.9 | 40.2 | 0.00 | 0.00 | 0.00 | 2 | 1006.5 |
| 20260504201004 | 20 | 213 | 17.7 | 32.2 | 0.00 | 0.00 | 0.00 | 100 | 1006.4 |
| 20260504200504 | 20 | 209 | 14.5 | 45.1 | 0.00 | 0.00 | 0.00 | 100 | 1006.3 |
| 20260504200004 | 20 | 200 | 20.9 | 41.8 | 0.00 | 0.00 | 0.00 | 100 | 1006.5 |
| 20260504195503 | 20 | 199 | 20.9 | 40.2 | 0.00 | 0.00 | 0.00 | 100 | 1006.4 |
| 20260504195004 | 20 | 195 | 17.7 | 32.2 | 0.00 | 0.00 | 0.00 | 100 | 1006.4 |
| 20260504194505 | 20 | 205 | 17.7 | 32.2 | 0.00 | 0.00 | 0.00 | 100 | 1006.3 |
| 20260504193504 | 22 | 196 | 3.2 | 19.3 | 0.00 | 0.00 | 0.00 | 100 | 1006.3 |
| 20260504193004 | 21 | 233 | 14.5 | 38.6 | 0.00 | 0.00 | 0.00 | 100 | 1006.4 |
| 20260504192504 | 21 | 214 | 16.1 | 41.8 | 0.00 | 0.00 | 0.00 | 100 | 1006.5 |
| 20260504192004 | 21 | 246 | 16.1 | 38.6 | 0.00 | 0.00 | 0.00 | 100 | 1006.3 |
| 20260504191504 | 21 | 250 | 9.7 | 32.2 | 0.00 | 0.00 | 0.00 | 100 | 1006.4 |
| 20260504191004 | 21 | 235 | 11.3 | 27.4 | 0.00 | 0.00 | 0.00 | 100 | 1006.4 |
| 20260504190504 | 21 | 243 | 16.1 | 38.6 | 0.00 | 0.00 | 0.00 | 2 | 1006.6 |
| 20260504190004 | 20 | 222 | 19.3 | 46.7 | 0.00 | 0.00 | 0.00 | 2 | 1006.5 |
| 20260504185504 | 21 | 225 | 16.1 | 35.4 | 0.00 | 0.00 | 0.00 | 2 | 1006.5 |
| 20260504185004 | 20 | 227 | 17.7 | 33.8 | 0.00 | 0.00 | 0.00 | 2 | 1006.6 |
| 20260504184503 | 20 | 234 | 16.1 | 37.0 | 0.00 | 0.00 | 0.00 | 2 | 1006.8 |
| 20260504184004 | 21 | 200 | 12.9 | 37.0 | 0.00 | 0.00 | 0.00 | 89 | 1006.6 |
| 20260504183004 | 21 | 243 | 8.0 | 20.9 | 0.00 | 0.00 | 0.00 | 2 | 1006.7 |
| 20260504182504 | 20 | 228 | 17.7 | 32.2 | 0.00 | 0.00 | 0.00 | 2 | 1006.8 |
| 20260504182004 | 20 | 206 | 20.9 | 45.1 | 0.00 | 0.00 | 0.00 | 100 | 1006.9 |
| 20260504181503 | 20 | 205 | 16.1 | 35.4 | 0.00 | 0.00 | 0.00 | 2 | 1006.8 |
| 20260504181004 | 20 | 204 | 19.3 | 33.8 | 0.00 | 0.00 | 0.00 | 2 | 1006.9 |
| 20260504180504 | 20 | 206 | 16.1 | 40.2 | 0.00 | 0.00 | 0.00 | 2 | 1007.0 |
| 20260504180004 | 20 | 222 | 16.1 | 40.2 | 0.00 | 0.00 | 0.00 | 100 | 1007.0 |
| 20260504175504 | 20 | 217 | 16.1 | 32.2 | 0.00 | 0.00 | 0.00 | 100 | 1007.0 |
| 20260504175004 | 20 | 230 | 19.3 | 35.4 | 0.00 | 0.00 | 0.00 | 2 | 1007.1 |
| 20260504174504 | 20 | 198 | 16.1 | 33.8 | 0.00 | 0.00 | 0.00 | 100 | 1006.9 |
| 20260504174004 | 20 | 235 | 19.3 | 33.8 | 0.00 | 0.00 | 0.00 | 100 | 1006.9 |
| 20260504173503 | 20 | 208 | 20.9 | 32.2 | 0.00 | 0.00 | 0.00 | 100 | 1006.8 |
| 20260504173004 | 20 | 238 | 14.5 | 41.8 | 0.00 | 0.00 | 0.00 | 100 | 1007.0 |
| 20260504172504 | 20 | 204 | 27.4 | 49.9 | 0.00 | 0.00 | 0.00 | 100 | 1006.8 |
| 20260504172004 | 21 | 211 | 8.0 | 24.1 | 0.00 | 0.00 | 0.00 | 2 | 1006.8 |
| 20260504171504 | 20 | 219 | 12.9 | 33.8 | 0.00 | 0.00 | 0.00 | 2 | 1006.7 |
| 20260504171003 | 20 | 253 | 14.5 | 40.2 | 0.00 | 0.00 | 0.00 | 2 | 1006.9 |
| 20260504151003 | 18 | 225 | 16.1 | 35.4 | 0.00 | 0.00 | 0.00 | 100 | 1008.5 |
| 20260504141004 | 17 | 208 | 11.3 | 27.4 | 0.00 | 0.00 | 0.00 | 2 | 1009.0 |
| 20260504140505 | 17 | 238 | 8.0 | 19.3 | 0.00 | 0.00 | 0.00 | 2 | 1009.1 |
| 20260504130504 | 15 | 204 | 4.8 | 12.9 | 0.00 | 0.00 | 0.00 | 2 | 1009.7 |